createdAt,value
2023-04-30T00:02:17.023Z,16.90
2023-04-30T00:04:45.520Z,16.17
2023-04-30T00:07:14.372Z,16.70
2023-04-30T00:09:44.083Z,17.23
2023-04-30T00:12:12.401Z,16.33
2023-04-30T00:14:40.634Z,15.82
2023-04-30T00:17:09.007Z,16.80
2023-04-30T00:19:37.292Z,17.08
2023-04-30T00:22:06.168Z,17.13
2023-04-30T00:24:34.491Z,18.20
2023-04-30T00:27:04.274Z,17.15
2023-04-30T00:29:32.638Z,16.90
2023-04-30T00:32:01.248Z,17.30
2023-04-30T00:34:29.803Z,18.38
2023-04-30T00:36:58.112Z,18.48
2023-04-30T00:39:26.373Z,19.33
2023-04-30T00:41:54.698Z,18.05
2023-04-30T00:44:24.808Z,18.85
2023-04-30T00:46:53.330Z,18.88
2023-04-30T00:49:21.671Z,18.90
2023-04-30T00:51:51.058Z,19.23
2023-04-30T00:54:21.393Z,18.85
2023-04-30T00:56:49.834Z,18.55
2023-04-30T00:59:18.496Z,18.40
2023-04-30T01:01:48.644Z,18.25
2023-04-30T01:04:17.234Z,18.48
2023-04-30T01:06:46.638Z,20.02
2023-04-30T01:09:15.218Z,19.27
2023-04-30T01:11:58.353Z,18.88
2023-04-30T01:14:39.689Z,18.33
2023-04-30T01:17:19.378Z,20.25
2023-04-30T01:19:48.125Z,19.40
2023-04-30T01:22:33.317Z,19.08
2023-04-30T01:25:27.080Z,19.50
2023-04-30T01:28:08.585Z,19.35
2023-04-30T01:30:37.965Z,19.17
2023-04-30T01:33:06.328Z,20.50
2023-04-30T01:36:22.259Z,19.35
2023-04-30T01:39:10.616Z,19.50
2023-04-30T01:41:53.319Z,20.00
2023-04-30T01:44:44.503Z,20.40
2023-04-30T01:47:31.840Z,20.83
2023-04-30T01:50:12.275Z,21.42
2023-04-30T01:52:45.938Z,21.73
2023-04-30T01:55:19.855Z,21.90
2023-04-30T01:57:59.121Z,21.13
2023-04-30T02:00:31.645Z,21.77
2023-04-30T02:03:00.700Z,22.25
2023-04-30T02:05:29.092Z,21.50
2023-04-30T02:07:57.970Z,20.25
2023-04-30T02:10:27.849Z,21.85
2023-04-30T02:12:56.174Z,21.13
2023-04-30T02:15:24.758Z,22.00
2023-04-30T02:17:54.543Z,20.67
2023-04-30T02:20:22.979Z,20.95
2023-04-30T02:22:51.716Z,21.27
2023-04-30T02:25:20.101Z,21.23
2023-04-30T02:27:50.472Z,21.45
2023-04-30T02:30:20.080Z,21.50
2023-04-30T02:32:49.154Z,22.05
2023-04-30T02:35:19.064Z,22.88
2023-04-30T02:37:47.368Z,22.15
2023-04-30T02:40:16.154Z,23.52
2023-04-30T02:42:44.574Z,22.70
2023-04-30T02:45:12.994Z,23.30
2023-04-30T02:47:41.982Z,22.65
2023-04-30T02:50:11.254Z,22.25
2023-04-30T02:52:41.042Z,23.23
2023-04-30T02:55:10.290Z,24.50
2023-04-30T02:57:38.948Z,24.67
2023-04-30T03:00:09.098Z,24.55
2023-04-30T03:05:07.358Z,26.80
2023-04-30T03:07:36.007Z,25.77
2023-04-30T03:10:06.989Z,26.25
2023-04-30T03:12:35.690Z,25.15
2023-04-30T03:15:04.621Z,25.73
2023-04-30T03:17:33.181Z,25.52
2023-04-30T03:20:01.464Z,26.10
2023-04-30T03:22:29.985Z,24.70
2023-04-30T03:24:58.292Z,26.67
2023-04-30T03:27:27.968Z,26.02
2023-04-30T03:29:56.910Z,26.97
2023-04-30T03:32:25.711Z,25.52
2023-04-30T03:34:53.970Z,25.77
2023-04-30T03:37:22.370Z,25.80
2023-04-30T03:39:50.749Z,25.92
2023-04-30T03:42:19.129Z,26.20
2023-04-30T03:44:48.840Z,26.90
2023-04-30T03:47:17.506Z,25.00
2023-04-30T03:49:45.867Z,25.98
2023-04-30T03:52:14.284Z,26.85
2023-04-30T03:54:42.572Z,28.38
2023-04-30T03:57:12.946Z,27.38
2023-04-30T03:59:41.672Z,27.20
2023-04-30T04:02:11.469Z,29.10
2023-04-30T04:04:40.217Z,28.33
2023-04-30T04:07:09.744Z,29.13
2023-04-30T04:09:38.252Z,28.45
2023-04-30T04:12:07.265Z,28.35
2023-04-30T04:14:36.029Z,27.90
2023-04-30T04:17:05.689Z,27.80
2023-04-30T04:19:35.699Z,27.70
2023-04-30T04:22:04.904Z,28.20
2023-04-30T04:24:33.299Z,28.60
2023-04-30T04:27:04.146Z,27.38
2023-04-30T04:29:34.426Z,23.92
2023-04-30T04:32:04.650Z,23.92
2023-04-30T04:34:35.278Z,23.08
2023-04-30T04:37:03.902Z,26.27
2023-04-30T04:39:32.376Z,25.33
2023-04-30T04:42:01.305Z,22.50
2023-04-30T04:44:29.800Z,22.33
2023-04-30T04:46:58.122Z,22.95
2023-04-30T04:49:26.534Z,24.13
2023-04-30T04:51:56.211Z,22.08
2023-04-30T04:54:24.542Z,22.20
2023-04-30T04:56:52.850Z,20.52
2023-04-30T04:59:21.196Z,20.67
2023-04-30T05:01:50.527Z,20.10
2023-04-30T05:04:18.875Z,20.33
2023-04-30T05:06:47.324Z,19.15
2023-04-30T05:09:17.487Z,19.27
2023-04-30T05:11:46.290Z,18.75
2023-04-30T05:14:14.560Z,16.25
2023-04-30T05:16:43.217Z,17.10
2023-04-30T05:19:11.557Z,17.33
2023-04-30T05:21:40.195Z,16.77
2023-04-30T05:24:08.716Z,17.15
2023-04-30T05:26:38.450Z,17.10
2023-04-30T05:29:06.817Z,16.43
2023-04-30T05:31:35.172Z,16.00
2023-04-30T05:34:03.499Z,15.95
2023-04-30T05:36:32.172Z,16.08
2023-04-30T05:39:00.502Z,15.82
2023-04-30T05:41:28.827Z,15.95
2023-04-30T05:43:58.485Z,15.75
2023-04-30T05:46:26.887Z,15.88
2023-04-30T05:48:55.609Z,15.70
2023-04-30T05:51:23.986Z,15.65
2023-04-30T05:53:52.381Z,15.88
2023-04-30T05:56:21.042Z,15.00
2023-04-30T05:58:51.031Z,14.73
2023-04-30T06:01:21.227Z,16.00
2023-04-30T06:03:49.536Z,14.75
2023-04-30T06:06:17.871Z,14.35
2023-04-30T06:08:46.213Z,14.60
2023-04-30T06:11:15.316Z,14.93
2023-04-30T06:13:43.714Z,15.13
2023-04-30T06:16:12.233Z,13.60
2023-04-30T06:18:41.848Z,13.70
2023-04-30T06:21:10.164Z,14.38
2023-04-30T06:23:38.852Z,14.27
2023-04-30T06:26:07.303Z,14.07
2023-04-30T06:28:35.599Z,13.77
2023-04-30T06:31:04.065Z,13.60
2023-04-30T06:33:32.395Z,13.70
2023-04-30T06:36:02.090Z,14.13
2023-04-30T06:38:30.555Z,13.85
2023-04-30T06:40:59.024Z,14.60
2023-04-30T06:43:27.319Z,14.63
2023-04-30T06:45:55.611Z,14.23
2023-04-30T06:48:24.072Z,13.98
2023-04-30T06:50:52.534Z,13.57
2023-04-30T06:53:23.028Z,13.52
2023-04-30T06:55:53.175Z,13.45
2023-04-30T06:58:21.488Z,12.95
2023-04-30T07:00:49.840Z,13.27
2023-04-30T07:03:18.170Z,13.18
2023-04-30T07:05:46.821Z,12.50
2023-04-30T07:08:15.385Z,13.60
2023-04-30T07:10:45.035Z,13.20
2023-04-30T07:13:13.628Z,13.43
2023-04-30T07:15:42.443Z,12.50
2023-04-30T07:18:11.073Z,12.88
2023-04-30T07:20:39.387Z,12.73
2023-04-30T07:23:07.749Z,12.98
2023-04-30T07:25:36.395Z,13.65
2023-04-30T07:28:06.106Z,13.20
2023-04-30T07:30:35.030Z,12.40
2023-04-30T07:33:03.340Z,13.27
2023-04-30T07:35:31.650Z,13.13
2023-04-30T07:37:59.963Z,12.40
2023-04-30T07:40:35.784Z,12.82
2023-04-30T07:43:06.514Z,14.50
2023-04-30T07:45:35.523Z,12.82
2023-04-30T07:48:03.996Z,12.73
2023-04-30T07:50:34.474Z,13.20
2023-04-30T07:53:03.483Z,11.88
2023-04-30T07:55:31.797Z,12.43
2023-04-30T07:58:02.343Z,11.80
2023-04-30T08:00:32.045Z,12.32
2023-04-30T08:03:01.524Z,12.15
2023-04-30T08:05:30.274Z,11.73
2023-04-30T08:07:58.697Z,12.63
2023-04-30T08:10:27.549Z,11.80
2023-04-30T08:12:55.925Z,12.63
2023-04-30T08:15:24.331Z,11.88
2023-04-30T08:17:54.077Z,11.52
2023-04-30T08:20:23.708Z,12.10
2023-04-30T08:22:52.342Z,11.63
2023-04-30T08:25:20.885Z,11.70
2023-04-30T08:27:49.452Z,11.15
2023-04-30T08:30:17.963Z,11.02
2023-04-30T08:32:46.329Z,10.73
2023-04-30T08:35:16.985Z,10.65
2023-04-30T08:40:14.131Z,10.20
2023-04-30T08:42:51.832Z,9.82
2023-04-30T08:45:21.512Z,10.73
2023-04-30T08:47:51.526Z,9.50
2023-04-30T08:50:21.431Z,8.95
2023-04-30T08:52:49.926Z,9.38
2023-04-30T08:55:18.293Z,8.80
2023-04-30T08:57:46.680Z,8.25
2023-04-30T09:00:16.150Z,8.55
2023-04-30T09:02:45.488Z,7.88
2023-04-30T09:05:16.202Z,7.38
2023-04-30T09:10:19.880Z,7.60
2023-04-30T09:13:01.297Z,7.07
2023-04-30T09:15:30.515Z,8.55
2023-04-30T09:18:14.550Z,8.00
2023-04-30T09:20:57.463Z,8.30
2023-04-30T09:23:27.293Z,7.90
2023-04-30T09:25:56.550Z,8.68
2023-04-30T09:28:27.581Z,8.35
2023-04-30T09:30:58.714Z,7.32
2023-04-30T09:33:27.082Z,7.97
2023-04-30T09:35:55.483Z,8.05
2023-04-30T09:38:29.894Z,7.15
2023-04-30T09:41:00.379Z,7.60
2023-04-30T09:43:29.277Z,7.20
2023-04-30T09:46:00.698Z,6.28
2023-04-30T09:48:29.668Z,7.40
2023-04-30T09:50:58.115Z,6.70
2023-04-30T09:53:29.176Z,6.80
2023-04-30T09:55:59.999Z,7.57
2023-04-30T09:58:30.363Z,7.47
2023-04-30T10:01:02.377Z,7.00
2023-04-30T10:03:32.826Z,7.68
2023-04-30T10:06:01.857Z,8.32
2023-04-30T10:08:37.439Z,7.35
2023-04-30T10:11:08.955Z,7.07
2023-04-30T10:13:45.007Z,6.60
2023-04-30T10:16:24.907Z,7.03
2023-04-30T10:18:55.222Z,7.03
2023-04-30T10:21:27.258Z,5.55
2023-04-30T10:23:58.008Z,4.95
2023-04-30T10:26:26.933Z,6.97
2023-04-30T10:28:59.111Z,7.30
2023-04-30T10:31:28.028Z,5.78
2023-04-30T10:34:08.035Z,3.85
2023-04-30T10:36:44.699Z,4.30
2023-04-30T10:39:14.688Z,4.45
2023-04-30T10:41:49.110Z,5.57
2023-04-30T10:44:23.226Z,5.25
2023-04-30T10:46:59.976Z,5.15
2023-04-30T10:49:28.592Z,5.63
2023-04-30T10:52:00.897Z,4.47
2023-04-30T10:54:32.730Z,5.13
2023-04-30T10:57:17.882Z,4.65
2023-04-30T10:59:53.580Z,5.22
2023-04-30T11:02:22.554Z,5.32
2023-04-30T11:05:14.472Z,3.63
2023-04-30T11:07:53.510Z,3.72
2023-04-30T11:10:27.495Z,4.40
2023-04-30T11:12:57.807Z,5.05
2023-04-30T11:15:46.024Z,5.60
2023-04-30T11:18:19.222Z,4.63
2023-04-30T11:20:52.635Z,4.95
2023-04-30T11:23:38.484Z,5.30
2023-04-30T11:26:10.758Z,5.10
2023-04-30T11:28:39.623Z,6.85
2023-04-30T11:31:08.042Z,6.10
2023-04-30T11:33:36.725Z,5.78
2023-04-30T11:36:06.027Z,5.20
2023-04-30T11:38:38.360Z,6.25
2023-04-30T11:41:08.944Z,4.93
2023-04-30T11:46:09.320Z,5.55
2023-04-30T11:48:39.075Z,5.65
2023-04-30T11:51:16.416Z,5.27
2023-04-30T11:53:47.105Z,5.72
2023-04-30T11:56:21.464Z,5.75
2023-04-30T11:58:51.375Z,5.43
2023-04-30T12:01:20.874Z,5.65
2023-04-30T12:03:51.074Z,5.57
2023-04-30T12:06:24.688Z,5.47
2023-04-30T12:08:55.060Z,6.10
2023-04-30T12:11:26.597Z,5.60
2023-04-30T12:13:56.789Z,5.00
2023-04-30T12:16:26.533Z,4.70
2023-04-30T12:18:55.545Z,5.07
2023-04-30T12:21:24.332Z,6.47
2023-04-30T12:23:52.699Z,6.25
2023-04-30T12:26:21.088Z,6.20
2023-04-30T12:28:52.100Z,5.95
2023-04-30T12:31:20.461Z,5.35
2023-04-30T12:33:58.031Z,5.10
2023-04-30T12:36:33.257Z,4.90
2023-04-30T12:39:08.743Z,5.65
2023-04-30T12:41:43.230Z,5.90
2023-04-30T12:44:24.687Z,5.50
2023-04-30T12:46:56.740Z,5.90
2023-04-30T12:49:26.809Z,5.63
2023-04-30T12:52:01.651Z,6.32
2023-04-30T12:54:31.696Z,6.75
2023-04-30T12:57:03.212Z,6.60
2023-04-30T12:59:36.472Z,6.22
2023-04-30T13:02:10.072Z,6.75
2023-04-30T13:04:38.894Z,7.18
2023-04-30T13:07:07.745Z,7.10
2023-04-30T13:09:37.704Z,7.32
2023-04-30T13:12:07.288Z,6.70
2023-04-30T13:14:37.184Z,7.82
2023-04-30T13:17:07.333Z,6.70
2023-04-30T13:19:35.865Z,7.90
2023-04-30T13:22:04.149Z,6.70
2023-04-30T13:24:32.456Z,7.38
2023-04-30T13:27:00.697Z,7.22
2023-04-30T13:29:29.091Z,7.45
2023-04-30T13:31:59.255Z,7.43
2023-04-30T13:34:27.727Z,7.35
2023-04-30T13:36:56.038Z,7.40
2023-04-30T13:39:24.367Z,6.55
2023-04-30T13:41:52.640Z,6.65
2023-04-30T13:44:21.040Z,6.30
2023-04-30T13:46:50.155Z,5.93
2023-04-30T13:49:19.952Z,5.63
2023-04-30T13:51:48.304Z,5.97
2023-04-30T13:54:16.704Z,6.30
2023-04-30T13:56:45.121Z,6.28
2023-04-30T13:59:14.022Z,5.80
2023-04-30T14:01:43.036Z,6.03
2023-04-30T14:04:11.357Z,5.80
2023-04-30T14:06:42.137Z,5.47
2023-04-30T14:09:10.889Z,4.95
2023-04-30T14:11:39.950Z,5.55
2023-04-30T14:14:09.130Z,5.60
2023-04-30T14:16:37.705Z,5.10
2023-04-30T14:19:06.040Z,4.65
2023-04-30T14:21:34.376Z,4.90
2023-04-30T14:24:04.095Z,5.55
2023-04-30T14:26:32.425Z,5.03
2023-04-30T14:29:00.782Z,5.18
2023-04-30T14:31:29.117Z,5.10
2023-04-30T14:33:57.505Z,4.47
2023-04-30T14:36:27.560Z,5.38
2023-04-30T14:38:56.114Z,4.75
2023-04-30T14:41:25.845Z,5.00
2023-04-30T14:43:54.225Z,4.60
2023-04-30T14:46:22.697Z,4.18
2023-04-30T14:48:51.010Z,4.32
2023-04-30T14:51:19.337Z,4.22
2023-04-30T14:53:47.609Z,4.00
2023-04-30T14:56:15.990Z,3.53
2023-04-30T14:58:45.722Z,3.70
2023-04-30T15:01:14.095Z,3.20
2023-04-30T15:03:42.557Z,3.58
2023-04-30T15:06:11.223Z,4.00
2023-04-30T15:08:41.667Z,3.72
2023-04-30T15:11:10.768Z,3.30
2023-04-30T15:13:39.058Z,4.35
2023-04-30T15:16:09.353Z,4.93
2023-04-30T15:18:37.799Z,4.20
2023-04-30T15:21:06.830Z,4.35
2023-04-30T15:23:35.343Z,4.00
2023-04-30T15:26:04.454Z,4.15
2023-04-30T15:28:33.330Z,4.53
2023-04-30T15:31:01.852Z,4.30
2023-04-30T15:33:31.860Z,4.55
2023-04-30T15:36:00.506Z,3.85
2023-04-30T15:38:29.217Z,3.92
2023-04-30T15:40:57.574Z,4.10
2023-04-30T15:43:26.066Z,4.28
2023-04-30T15:45:54.552Z,4.35
2023-04-30T15:48:23.069Z,4.63
2023-04-30T15:50:52.755Z,4.10
2023-04-30T15:53:21.129Z,4.13
2023-04-30T15:55:50.691Z,3.90
2023-04-30T15:58:19.158Z,4.68
2023-04-30T16:00:47.578Z,4.07
2023-04-30T16:03:16.025Z,3.88
2023-04-30T16:05:44.379Z,4.50
2023-04-30T16:08:15.046Z,4.53
2023-04-30T16:10:43.472Z,4.13
2023-04-30T16:13:11.789Z,4.55
2023-04-30T16:15:40.147Z,3.97
2023-04-30T16:18:10.113Z,3.70
2023-04-30T16:20:38.738Z,4.80
2023-04-30T16:23:07.083Z,4.65
2023-04-30T16:25:39.122Z,4.30
2023-04-30T16:28:07.526Z,3.78
2023-04-30T16:30:36.098Z,3.67
2023-04-30T16:33:04.608Z,3.88
2023-04-30T16:35:33.007Z,4.20
2023-04-30T16:38:02.600Z,4.03
2023-04-30T16:40:31.098Z,4.15
2023-04-30T16:43:00.878Z,3.70
2023-04-30T16:45:30.335Z,3.67
2023-04-30T16:47:59.148Z,3.95
2023-04-30T16:50:27.816Z,4.05
2023-04-30T16:52:56.232Z,4.00
2023-04-30T16:55:25.087Z,4.40
2023-04-30T16:57:53.890Z,4.22
2023-04-30T17:00:23.730Z,4.38
2023-04-30T17:02:53.218Z,4.20
2023-04-30T17:05:22.311Z,3.80
2023-04-30T17:07:50.604Z,4.32
2023-04-30T17:10:21.333Z,4.00
2023-04-30T17:15:19.770Z,3.88
2023-04-30T17:17:49.516Z,4.18
2023-04-30T17:20:18.168Z,4.43
2023-04-30T17:22:47.363Z,4.60
2023-04-30T17:25:16.217Z,3.88
2023-04-30T17:27:44.530Z,4.13
2023-04-30T17:30:13.442Z,3.70
2023-04-30T17:32:42.342Z,4.75
2023-04-30T17:35:12.199Z,4.45
2023-04-30T17:37:40.871Z,4.40
2023-04-30T17:40:10.809Z,4.20
2023-04-30T17:42:39.920Z,3.70
2023-04-30T17:45:09.524Z,4.43
2023-04-30T17:47:38.022Z,4.65
2023-04-30T17:50:09.689Z,3.90
2023-04-30T17:52:39.581Z,4.22
2023-04-30T17:55:09.379Z,4.97
2023-04-30T17:57:38.251Z,4.65
2023-04-30T18:00:08.649Z,4.00
2023-04-30T18:02:43.165Z,3.53
2023-04-30T18:05:11.897Z,3.97
2023-04-30T18:07:41.627Z,4.28
2023-04-30T18:10:11.215Z,3.78
2023-04-30T18:12:39.835Z,4.18
2023-04-30T18:15:09.481Z,4.00
2023-04-30T18:17:37.881Z,3.78
2023-04-30T18:20:08.142Z,4.05
2023-04-30T18:22:42.467Z,4.13
2023-04-30T18:25:14.129Z,4.28
2023-04-30T18:27:42.558Z,4.20
2023-04-30T18:30:12.729Z,4.20
2023-04-30T18:32:44.433Z,4.40
2023-04-30T18:35:12.839Z,4.03
2023-04-30T18:37:41.112Z,3.70
2023-04-30T18:40:12.347Z,4.13
2023-04-30T18:42:40.755Z,4.25
2023-04-30T18:45:11.442Z,3.90
2023-04-30T18:50:13.635Z,3.80
2023-04-30T18:52:42.884Z,4.13
2023-04-30T18:55:14.017Z,4.63
2023-04-30T18:57:43.375Z,3.80
2023-04-30T19:00:14.593Z,4.15
2023-04-30T19:02:44.211Z,3.53
2023-04-30T19:05:12.825Z,4.10
2023-04-30T19:07:41.160Z,3.83
2023-04-30T19:10:10.380Z,4.32
2023-04-30T19:12:40.521Z,3.55
2023-04-30T19:15:11.645Z,3.60
2023-04-30T19:17:40.236Z,3.90
2023-04-30T19:20:10.331Z,3.78
2023-04-30T19:22:38.812Z,3.50
2023-04-30T19:25:08.076Z,3.70
2023-04-30T19:27:36.467Z,4.03
2023-04-30T19:30:08.181Z,3.90
2023-04-30T19:32:37.267Z,3.67
2023-04-30T19:35:06.621Z,4.10
2023-04-30T19:37:35.024Z,4.13
2023-04-30T19:40:04.286Z,4.57
2023-04-30T19:42:32.575Z,4.25
2023-04-30T19:45:00.873Z,4.97
2023-04-30T19:47:30.733Z,4.32
2023-04-30T19:49:59.099Z,4.20
2023-04-30T19:52:27.441Z,4.10
2023-04-30T19:54:56.039Z,4.40
2023-04-30T19:57:24.307Z,4.60
2023-04-30T19:59:52.588Z,4.68
2023-04-30T20:02:20.913Z,4.28
2023-04-30T20:04:50.640Z,3.92
2023-04-30T20:07:20.412Z,4.28
2023-04-30T20:09:48.886Z,5.22
2023-04-30T20:12:17.281Z,4.65
2023-04-30T20:14:45.604Z,4.68
2023-04-30T20:17:14.847Z,4.60
2023-04-30T20:19:43.340Z,5.07
2023-04-30T20:22:13.271Z,5.00
2023-04-30T20:24:44.659Z,7.20
2023-04-30T20:27:13.446Z,5.10
2023-04-30T20:29:41.995Z,4.60
2023-04-30T20:32:10.459Z,5.50
2023-04-30T20:34:38.755Z,4.85
2023-04-30T20:37:07.276Z,5.10
2023-04-30T20:39:39.057Z,4.68
2023-04-30T20:42:07.478Z,5.20
2023-04-30T20:44:35.914Z,4.45
2023-04-30T20:47:06.328Z,5.32
2023-04-30T20:49:34.790Z,5.38
2023-04-30T20:52:03.053Z,5.88
2023-04-30T20:54:31.434Z,5.45
2023-04-30T20:57:01.112Z,5.43
2023-04-30T20:59:29.682Z,5.07
2023-04-30T21:01:58.291Z,5.95
2023-04-30T21:04:26.708Z,5.45
2023-04-30T21:06:55.235Z,5.82
2023-04-30T21:09:23.688Z,5.90
2023-04-30T21:11:51.978Z,5.85
2023-04-30T21:14:21.746Z,6.10
2023-04-30T21:16:51.294Z,6.20
2023-04-30T21:19:19.762Z,6.15
2023-04-30T21:21:48.439Z,5.50
2023-04-30T21:24:16.984Z,5.82
2023-04-30T21:26:45.403Z,6.00
2023-04-30T21:29:14.524Z,5.55
2023-04-30T21:31:44.307Z,5.68
2023-04-30T21:34:12.690Z,5.90
2023-04-30T21:36:41.382Z,6.50
2023-04-30T21:39:09.705Z,6.35
2023-04-30T21:41:38.063Z,5.88
2023-04-30T21:44:06.797Z,6.72
2023-04-30T21:46:35.140Z,5.88
2023-04-30T21:49:04.840Z,5.90
2023-04-30T21:51:33.256Z,5.93
2023-04-30T21:54:01.576Z,5.78
2023-04-30T21:56:29.836Z,5.57
2023-04-30T21:58:58.237Z,6.32
2023-04-30T22:01:29.807Z,6.47
2023-04-30T22:03:58.697Z,6.18
2023-04-30T22:06:28.606Z,5.85
2023-04-30T22:08:57.049Z,6.38
2023-04-30T22:11:25.950Z,6.03
2023-04-30T22:13:54.297Z,6.25
2023-04-30T22:16:22.834Z,6.43
2023-04-30T22:18:51.602Z,5.90
2023-04-30T22:21:19.906Z,5.80
2023-04-30T22:23:49.675Z,5.97
2023-04-30T22:26:18.024Z,5.78
2023-04-30T22:28:46.370Z,6.43
2023-04-30T22:31:14.824Z,5.97
2023-04-30T22:33:44.310Z,6.60
2023-04-30T22:36:12.621Z,6.53
2023-04-30T22:38:41.010Z,6.35
2023-04-30T22:41:10.697Z,5.72
2023-04-30T22:43:39.225Z,6.73
2023-04-30T22:46:07.565Z,6.55
2023-04-30T22:48:36.036Z,6.28
2023-04-30T22:51:04.953Z,6.43
2023-04-30T22:53:34.339Z,6.10
2023-04-30T22:56:02.654Z,6.53
2023-04-30T22:58:32.310Z,6.60
2023-04-30T23:01:00.820Z,6.40
2023-04-30T23:03:29.128Z,6.65
2023-04-30T23:06:00.372Z,6.68
2023-04-30T23:08:28.735Z,6.65
2023-04-30T23:10:57.073Z,6.60
2023-04-30T23:13:25.404Z,6.50
2023-04-30T23:15:58.939Z,6.68
2023-04-30T23:18:27.457Z,6.28
2023-04-30T23:20:58.801Z,6.35
2023-04-30T23:23:27.445Z,6.40
2023-04-30T23:25:55.825Z,6.45
2023-04-30T23:28:25.418Z,6.32
2023-04-30T23:30:55.829Z,6.25
2023-04-30T23:33:24.212Z,6.43
2023-04-30T23:35:54.515Z,6.55
2023-04-30T23:38:23.081Z,6.20
2023-04-30T23:40:51.443Z,6.28
2023-04-30T23:43:19.756Z,6.53
2023-04-30T23:45:48.130Z,6.32
2023-04-30T23:48:17.809Z,6.70
2023-04-30T23:50:47.244Z,6.73
2023-04-30T23:53:17.300Z,6.18
2023-04-30T23:55:45.613Z,6.25
2023-04-30T23:58:13.896Z,5.93
